Time;durP1;ratioP1;P1;durP2;ratioP2;P2;SDS_P1;SDS_P2;PMS_P1;PMS_P2;Temp;Humidity;BMP_temperature;BMP_pressure;BME280_temperature;BME280_humidity;BME280_pressure;Samples;Min_cycle;Max_cycle;Signal;HPM_P1;HPM_P2
2020/12/14 00:00:00;;;;;;;13.35;4.60;;;;;;;9.44;77.55;100642.16;6245342;23;20022;-80
2020/12/14 00:02:29;;;;;;;11.75;5.07;;;;;;;9.47;77.37;100635.84;6245359;23;20020;-80
2020/12/14 00:04:56;;;;;;;16.65;5.70;;;;;;;9.49;77.71;100637.53;6219438;23;20031;-79
2020/12/14 00:07:23;;;;;;;12.82;5.32;;;;;;;9.50;77.53;100628.66;6245604;23;20088;-80
2020/12/14 00:09:50;;;;;;;11.55;4.70;;;;;;;9.49;77.51;100612.84;6220551;23;20324;-80
2020/12/14 00:12:16;;;;;;;9.25;4.53;;;;;;;9.42;76.57;100608.75;6245533;23;20466;-79
2020/12/14 00:14:42;;;;;;;12.10;4.85;;;;;;;9.30;76.76;100611.00;6244159;23;20079;-80
2020/12/14 00:17:08;;;;;;;9.32;4.60;;;;;;;9.21;76.74;100610.56;6245365;23;20019;-80
2020/12/14 00:19:35;;;;;;;10.90;4.68;;;;;;;9.13;76.89;100603.81;6244724;23;20476;-80
2020/12/14 00:22:01;;;;;;;13.23;5.05;;;;;;;9.07;76.86;100609.38;6244632;23;20097;-81
2020/12/14 00:24:27;;;;;;;13.02;5.30;;;;;;;9.03;77.17;100607.78;6264828;23;20402;-80
2020/12/14 00:26:53;;;;;;;13.52;4.97;;;;;;;9.00;77.20;100607.91;6265654;23;20039;-81
2020/12/14 00:29:20;;;;;;;11.30;5.05;;;;;;;8.94;77.20;100600.25;6250826;23;20023;-80
2020/12/14 00:31:53;;;;;;;13.70;5.20;;;;;;;8.90;77.45;100611.88;6262946;22;20465;-80
2020/12/14 00:34:21;;;;;;;13.30;5.57;;;;;;;8.92;78.19;100607.38;6245500;23;20016;-80
2020/12/14 00:37:03;;;;;;;12.13;5.28;;;;;;;8.99;78.24;100595.63;6244631;23;20012;-81
2020/12/14 00:39:29;;;;;;;9.25;5.22;;;;;;;9.05;78.19;100600.66;6245780;22;20019;-80
2020/12/14 00:41:55;;;;;;;12.18;5.13;;;;;;;9.11;78.40;100600.38;6220055;23;20028;-80
2020/12/14 00:44:21;;;;;;;13.25;5.32;;;;;;;9.19;78.21;100591.25;6246546;23;20016;-80
2020/12/14 00:46:47;;;;;;;10.90;4.63;;;;;;;9.22;78.00;100591.16;6219789;23;20461;-80
2020/12/14 00:49:14;;;;;;;10.95;4.75;;;;;;;9.24;77.95;100584.00;6246373;23;20016;-80
2020/12/14 00:51:40;;;;;;;12.90;4.80;;;;;;;9.25;77.61;100580.41;6195186;23;20075;-80
2020/12/14 00:54:07;;;;;;;12.85;5.18;;;;;;;9.27;77.78;100575.97;6195244;23;20024;-80
2020/12/14 00:56:34;;;;;;;12.55;4.97;;;;;;;9.27;77.72;100568.88;6220345;23;20020;-80
2020/12/14 00:59:01;;;;;;;15.02;4.97;;;;;;;9.29;77.83;100561.75;6198699;23;20020;-80
2020/12/14 01:01:28;;;;;;;10.73;5.18;;;;;;;9.31;77.82;100569.59;6195883;23;20020;-80
2020/12/14 01:03:54;;;;;;;11.93;4.93;;;;;;;9.33;77.78;100575.69;6221319;23;20020;-80
2020/12/14 01:06:20;;;;;;;10.18;4.47;;;;;;;9.37;77.94;100579.91;6219571;23;20464;-79
2020/12/14 01:08:46;;;;;;;11.68;4.55;;;;;;;9.42;78.06;100599.06;6247407;23;20147;-80
2020/12/14 01:11:12;;;;;;;12.52;5.50;;;;;;;9.49;78.16;100589.94;6246775;23;20504;-82
2020/12/14 01:13:38;;;;;;;11.30;4.97;;;;;;;9.55;78.42;100597.59;6220509;23;20027;-82
2020/12/14 01:16:08;;;;;;;11.05;4.10;;;;;;;9.62;78.04;100594.66;6218937;23;20465;-82
2020/12/14 01:18:37;;;;;;;10.10;4.38;;;;;;;9.66;77.71;100597.13;6195117;23;20357;-82
2020/12/14 01:21:04;;;;;;;12.70;4.63;;;;;;;9.70;78.04;100592.50;6195423;23;20024;-78
2020/12/14 01:23:30;;;;;;;13.93;4.82;;;;;;;9.74;77.97;100594.97;6220322;23;20380;-82
2020/12/14 01:25:56;;;;;;;14.63;4.85;;;;;;;9.79;77.80;100593.91;6220047;23;20446;-82
2020/12/14 01:28:22;;;;;;;7.78;4.50;;;;;;;9.83;77.89;100592.81;6194603;23;20401;-82
2020/12/14 01:30:49;;;;;;;15.32;5.32;;;;;;;9.84;77.77;100587.47;6247187;23;20043;-80
2020/12/14 01:33:15;;;;;;;8.68;4.25;;;;;;;9.85;77.51;100575.97;6220502;23;20020;-80
2020/12/14 01:35:41;;;;;;;10.52;4.30;;;;;;;9.87;77.64;100574.09;6219249;23;20187;-80
2020/12/14 01:38:07;;;;;;;10.57;4.07;;;;;;;9.87;77.46;100568.81;6219194;23;20473;-80
2020/12/14 01:40:33;;;;;;;11.57;4.88;;;;;;;9.90;77.29;100573.94;6219378;23;20020;-80
2020/12/14 01:42:59;;;;;;;13.48;5.20;;;;;;;9.92;77.51;100576.53;6219246;23;20023;-80
2020/12/14 01:45:25;;;;;;;10.18;4.60;;;;;;;9.93;77.77;100568.53;6219937;23;20091;-80
2020/12/14 01:47:59;;;;;;;10.93;4.75;;;;;;;9.94;77.46;100564.97;6218791;23;20450;-80
2020/12/14 01:50:26;;;;;;;13.75;4.43;;;;;;;9.97;77.39;100555.16;6237061;23;20068;-80
2020/12/14 01:52:56;;;;;;;11.32;4.25;;;;;;;9.98;77.22;100570.09;6218960;23;20111;-80
2020/12/14 01:55:24;;;;;;;10.18;4.53;;;;;;;10.02;77.56;100555.78;6245112;23;20488;-80
2020/12/14 01:57:50;;;;;;;7.47;3.80;;;;;;;10.03;77.48;100557.50;6243945;23;20494;-80
2020/12/14 02:00:16;;;;;;;10.75;4.40;;;;;;;10.06;78.00;100567.97;6244747;23;20050;-80
2020/12/14 02:02:42;;;;;;;7.10;3.83;;;;;;;10.10;77.55;100574.81;6245445;22;20065;-80
2020/12/14 02:05:08;;;;;;;10.25;4.28;;;;;;;10.13;77.82;100574.66;6244734;23;20027;-80
2020/12/14 02:07:35;;;;;;;12.25;4.20;;;;;;;10.15;77.57;100580.72;6245556;22;20012;-79
2020/12/14 02:10:01;;;;;;;9.57;4.55;;;;;;;10.18;77.61;100588.53;6244268;23;20016;-80
2020/12/14 02:12:28;;;;;;;9.57;3.60;;;;;;;10.19;77.58;100574.38;6219877;23;20016;-80
2020/12/14 02:14:56;;;;;;;10.05;4.13;;;;;;;10.21;77.55;100572.50;6219287;23;20024;-80
2020/12/14 02:17:23;;;;;;;8.65;3.92;;;;;;;10.21;77.12;100567.22;6243412;23;20020;-80
2020/12/14 02:19:51;;;;;;;8.05;3.97;;;;;;;10.22;77.48;100571.56;6245455;23;20024;-80
2020/12/14 02:22:19;;;;;;;12.75;4.80;;;;;;;10.24;77.19;100577.66;6218991;23;20098;-80
2020/12/14 02:25:12;;;;;;;13.05;4.30;;;;;;;10.26;77.60;100573.13;6220103;23;20020;-81
2020/12/14 02:27:38;;;;;;;9.90;4.00;;;;;;;10.29;77.49;100580.94;6244347;23;20020;-80
2020/12/14 02:30:07;;;;;;;8.65;4.05;;;;;;;10.30;77.31;100555.31;6245531;23;20074;-80
2020/12/14 02:32:33;;;;;;;7.70;4.28;;;;;;;10.31;77.36;100557.94;6244772;23;20023;-81
2020/12/14 02:35:00;;;;;;;8.05;3.80;;;;;;;10.32;77.36;100559.66;6220063;23;20036;-80
2020/12/14 02:37:29;;;;;;;8.98;4.40;;;;;;;10.32;77.52;100549.06;6244333;23;20028;-81
2020/12/14 02:39:56;;;;;;;6.40;3.88;;;;;;;10.33;77.56;100545.47;6244841;23;20095;-81
2020/12/14 02:42:24;;;;;;;8.05;4.15;;;;;;;10.35;77.32;100547.19;6244332;23;20020;-80
2020/12/14 02:44:50;;;;;;;10.23;4.05;;;;;;;10.37;77.37;100540.88;6244043;23;20122;-80
2020/12/14 02:47:18;;;;;;;10.95;4.13;;;;;;;10.38;77.57;100537.31;6243998;23;20330;-80
2020/12/14 02:49:45;;;;;;;7.90;3.70;;;;;;;10.40;77.45;100537.25;6245178;22;20062;-80
2020/12/14 02:52:12;;;;;;;6.90;3.47;;;;;;;10.42;77.41;100535.38;6218456;23;20023;-81
2020/12/14 02:54:41;;;;;;;7.78;3.50;;;;;;;10.44;77.73;100536.16;6218994;23;20047;-80
2020/12/14 02:57:07;;;;;;;9.07;3.10;;;;;;;10.46;77.56;100542.22;6193699;23;20090;-80
2020/12/14 02:59:33;;;;;;;4.78;2.72;;;;;;;10.49;77.64;100534.13;6219314;23;20349;-80
2020/12/14 03:01:59;;;;;;;7.90;2.70;;;;;;;10.51;77.96;100525.19;6219930;23;20028;-80
2020/12/14 03:04:25;;;;;;;7.53;2.92;;;;;;;10.55;77.71;100520.59;6193307;23;20349;-80
2020/12/14 03:06:51;;;;;;;6.43;3.00;;;;;;;10.60;77.72;100517.69;6242168;23;20016;-80
2020/12/14 03:09:20;;;;;;;5.20;2.58;;;;;;;10.61;77.83;100512.34;6219521;23;20461;-80
2020/12/14 03:11:48;;;;;;;7.20;3.00;;;;;;;10.61;77.67;100512.34;6193765;23;20024;-80
2020/12/14 03:14:15;;;;;;;8.30;2.83;;;;;;;10.61;77.42;100517.63;6219508;23;20035;-80
2020/12/14 03:16:43;;;;;;;4.45;2.70;;;;;;;10.57;77.06;100510.78;6218569;23;20016;-80
2020/12/14 03:19:09;;;;;;;6.18;2.40;;;;;;;10.51;76.90;100500.50;6245069;23;20024;-80
2020/12/14 03:21:37;;;;;;;6.65;3.40;;;;;;;10.45;77.04;100511.38;6218610;23;20029;-80
2020/12/14 03:24:03;;;;;;;7.53;3.53;;;;;;;10.40;77.00;100518.72;6219848;23;20537;-80
2020/12/14 03:26:29;;;;;;;6.53;3.13;;;;;;;10.33;77.07;100519.00;6216934;23;20024;-80
2020/12/14 03:28:56;;;;;;;11.07;3.95;;;;;;;10.28;76.90;100515.72;6219141;23;20331;-81
2020/12/14 03:31:22;;;;;;;7.50;3.80;;;;;;;10.25;77.22;100513.19;6221736;23;20040;-80
2020/12/14 03:33:51;;;;;;;14.93;4.60;;;;;;;10.21;77.44;100509.00;6265620;23;20017;-81
2020/12/14 03:36:17;;;;;;;7.57;3.70;;;;;;;10.20;77.17;100504.63;6262841;23;20024;-80
2020/12/14 03:38:43;;;;;;;10.55;4.15;;;;;;;10.19;77.53;100509.97;6219900;23;20020;-80
2020/12/14 03:41:09;;;;;;;9.63;4.30;;;;;;;10.20;77.73;100507.28;6221026;23;20098;-80
2020/12/14 03:43:35;;;;;;;7.72;4.22;;;;;;;10.20;77.60;100512.56;6247658;23;20012;-80
2020/12/14 03:46:01;;;;;;;8.48;3.53;;;;;;;10.21;77.39;100508.13;6221906;23;20090;-80
2020/12/14 03:48:28;;;;;;;9.20;4.10;;;;;;;10.21;77.68;100511.66;6221254;23;20020;-80
2020/12/14 03:50:54;;;;;;;6.55;3.90;;;;;;;10.23;77.60;100507.13;6217638;23;20016;-81
2020/12/14 03:53:20;;;;;;;8.25;4.07;;;;;;;10.23;77.60;100509.78;6247213;23;20094;-80
2020/12/14 03:55:50;;;;;;;9.13;3.55;;;;;;;10.24;77.50;100508.81;6220475;23;20450;-81
2020/12/14 03:58:17;;;;;;;9.95;4.00;;;;;;;10.26;77.63;100506.97;6246302;23;20016;-80
2020/12/14 04:00:45;;;;;;;6.47;3.67;;;;;;;10.28;77.53;100505.13;6246100;23;20024;-80
2020/12/14 04:03:11;;;;;;;7.25;3.70;;;;;;;10.29;77.55;100509.47;6221186;23;20024;-80
2020/12/14 04:05:38;;;;;;;8.73;3.50;;;;;;;10.32;77.68;100512.00;6248649;23;20454;-80
2020/12/14 04:08:04;;;;;;;5.63;3.40;;;;;;;10.35;77.75;100510.13;6245518;23;20008;-80
2020/12/14 04:10:30;;;;;;;5.80;3.50;;;;;;;10.38;77.59;100509.97;6221167;23;20074;-80
2020/12/14 04:12:56;;;;;;;7.47;2.78;;;;;;;10.41;77.77;100500.09;6219998;23;20523;-80
2020/12/14 04:15:22;;;;;;;5.50;3.33;;;;;;;10.45;77.76;100500.78;6246389;23;20020;-80
2020/12/14 04:17:48;;;;;;;7.45;3.00;;;;;;;10.48;77.92;100495.34;6247291;23;20023;-79
2020/12/14 04:20:14;;;;;;;5.40;2.60;;;;;;;10.52;77.85;100502.19;6221537;23;20043;-80
2020/12/14 04:22:40;;;;;;;5.63;2.78;;;;;;;10.56;77.99;100498.47;6246765;23;20078;-79
2020/12/14 04:25:06;;;;;;;4.75;2.63;;;;;;;10.60;78.04;100497.38;6245967;23;20581;-79
2020/12/14 04:27:32;;;;;;;6.93;2.75;;;;;;;10.65;78.32;100491.84;6220841;23;20016;-80
2020/12/14 04:29:58;;;;;;;5.72;3.00;;;;;;;10.70;78.14;100490.69;6246095;23;20039;-80
2020/12/14 04:32:24;;;;;;;7.53;2.90;;;;;;;10.75;78.61;100502.81;6220396;23;20016;-82
2020/12/14 04:34:51;;;;;;;4.28;2.80;;;;;;;10.78;78.20;100500.88;6246707;23;20020;-81
2020/12/14 04:37:17;;;;;;;4.28;2.67;;;;;;;10.81;77.65;100507.81;6220708;23;20429;-80
2020/12/14 04:39:43;;;;;;;6.00;3.20;;;;;;;10.80;77.82;100506.09;6221075;23;20107;-80
2020/12/14 04:42:09;;;;;;;5.43;3.25;;;;;;;10.78;77.98;100507.97;6220463;23;20024;-80
2020/12/14 04:44:36;;;;;;;5.93;3.00;;;;;;;10.74;77.76;100506.41;6248429;22;20091;-80
2020/12/14 04:47:02;;;;;;;6.57;2.80;;;;;;;10.71;77.56;100502.97;6244757;23;20035;-81
2020/12/14 04:49:30;;;;;;;6.45;4.85;;;;;;;10.68;77.71;100508.44;6242429;22;19996;-75
2020/12/14 04:51:57;;;;;;;6.40;3.63;;;;;;;10.68;77.53;100503.16;6212184;23;20407;-75
2020/12/14 04:54:24;;;;;;;3.60;2.47;;;;;;;10.66;77.58;100505.03;6213310;23;20107;-76
2020/12/14 04:56:53;;;;;;;6.22;3.42;;;;;;;10.63;77.65;100499.88;6213940;23;20017;-75
2020/12/14 04:59:23;;;;;;;8.00;4.00;;;;;;;10.60;77.80;100497.38;6214174;23;20027;-75
2020/12/14 05:01:49;;;;;;;10.30;3.97;;;;;;;10.58;77.60;100507.19;6212551;23;20024;-75
2020/12/14 05:04:16;;;;;;;7.00;3.72;;;;;;;10.55;77.68;100501.19;6187862;23;20355;-75
2020/12/14 05:06:49;;;;;;;6.75;3.78;;;;;;;10.51;77.84;100500.50;6212713;23;20020;-75
2020/12/14 05:09:17;;;;;;;7.35;4.10;;;;;;;10.47;77.90;100493.63;6187572;23;20016;-75
2020/12/14 05:11:43;;;;;;;10.77;4.97;;;;;;;10.45;77.91;100496.38;6214156;23;20017;-75
2020/12/14 05:14:14;;;;;;;7.82;4.15;;;;;;;10.44;77.88;100489.34;6214544;23;20032;-75
2020/12/14 05:16:40;;;;;;;9.48;5.00;;;;;;;10.42;77.50;100485.09;6212966;23;20104;-75
2020/12/14 05:19:27;;;;;;;9.25;4.45;;;;;;;10.37;77.84;100485.28;6214152;23;20024;-75
2020/12/14 05:22:01;;;;;;;9.60;5.50;;;;;;;10.33;77.78;100492.53;6211986;23;20450;-75
2020/12/14 05:24:29;;;;;;;10.48;5.05;;;;;;;10.30;77.92;100503.28;6214658;23;20016;-75
2020/12/14 05:26:56;;;;;;;13.73;5.53;;;;;;;10.28;78.04;100489.25;6211892;23;20021;-75
2020/12/14 05:29:30;;;;;;;9.40;5.25;;;;;;;10.26;77.71;100496.38;6214147;23;20027;-75
2020/12/14 05:32:09;;;;;;;9.75;5.60;;;;;;;10.25;78.13;100484.09;6212972;23;20331;-75
2020/12/14 05:34:41;;;;;;;10.13;5.10;;;;;;;10.24;78.08;100482.38;6213189;23;20017;-75
2020/12/14 05:37:09;;;;;;;12.65;5.45;;;;;;;10.23;78.28;100480.66;6211753;23;20013;-75
2020/12/14 05:39:37;;;;;;;9.35;5.60;;;;;;;10.25;78.09;100489.38;6214136;23;20127;-75
2020/12/14 05:42:10;;;;;;;12.35;5.45;;;;;;;10.24;78.27;100477.06;6212447;23;20336;-75
2020/12/14 05:44:37;;;;;;;13.57;5.53;;;;;;;10.22;78.20;100484.22;6212305;23;20023;-75
2020/12/14 05:47:03;;;;;;;9.30;5.45;;;;;;;10.22;78.13;100473.63;6212041;23;20020;-75
2020/12/14 05:49:29;;;;;;;11.40;6.63;;;;;;;10.22;78.20;100471.00;6218639;22;20020;-75
2020/12/14 05:52:00;;;;;;;11.13;5.97;;;;;;;10.21;78.05;100465.78;6222532;22;20019;-77
2020/12/14 05:54:36;;;;;;;7.25;4.78;;;;;;;10.22;78.43;100483.38;6247913;22;20445;-76
2020/12/14 05:57:03;;;;;;;10.55;5.43;;;;;;;10.22;78.27;100483.38;6274415;22;20043;-77
2020/12/14 05:59:34;;;;;;;9.02;5.53;;;;;;;10.23;78.15;100480.66;6275131;22;20081;-75
2020/12/14 06:02:03;;;;;;;7.20;4.75;;;;;;;10.24;78.33;100481.50;6247407;22;20023;-76
2020/12/14 06:04:34;;;;;;;9.75;5.40;;;;;;;10.24;78.57;100487.66;6275922;22;20077;-75
2020/12/14 06:07:06;;;;;;;9.63;5.45;;;;;;;10.24;78.27;100477.06;6274117;22;20019;-75
2020/12/14 06:09:36;;;;;;;10.82;6.18;;;;;;;10.25;78.60;100481.44;6247730;22;20039;-74
2020/12/14 06:12:04;;;;;;;10.50;5.47;;;;;;;10.26;78.40;100475.19;6247260;22;20047;-75
2020/12/14 06:14:39;;;;;;;9.13;5.22;;;;;;;10.29;78.28;100469.75;6274771;22;20023;-76
2020/12/14 06:17:10;;;;;;;8.32;5.80;;;;;;;10.30;78.50;100468.88;6273947;22;20362;-75
2020/12/14 06:19:43;;;;;;;12.18;5.30;;;;;;;10.31;78.48;100467.06;6222674;22;20111;-76
2020/12/14 06:22:10;;;;;;;12.95;6.50;;;;;;;10.30;78.45;100476.81;6247755;22;20019;-76
2020/12/14 06:24:38;;;;;;;16.70;8.02;;;;;;;10.32;78.12;100474.94;6247844;22;20020;-75
2020/12/14 06:27:09;;;;;;;9.60;6.13;;;;;;;10.33;78.17;100471.34;6246948;22;20022;-76
2020/12/14 06:29:38;;;;;;;12.93;6.78;;;;;;;10.34;78.56;100472.22;6273027;22;20090;-75
2020/12/14 06:32:34;;;;;;;11.27;6.85;;;;;;;10.35;78.36;100479.22;6246882;22;20023;-75
2020/12/14 06:35:00;;;;;;;;;;;;;;;10.36;78.50;100485.38;6274599;22;20020;-76
2020/12/14 06:37:49;;;;;;;10.75;6.22;;;;;;;10.37;78.19;100481.78;6274429;22;20336;-76
2020/12/14 06:40:16;;;;;;;9.82;5.80;;;;;;;10.37;78.32;100487.09;6247596;22;20090;-76
2020/12/14 06:42:43;;;;;;;11.55;5.90;;;;;;;10.38;78.49;100488.78;6247756;22;20016;-75
2020/12/14 06:45:11;;;;;;;9.95;5.65;;;;;;;10.40;78.35;100497.53;6247175;22;20020;-76
2020/12/14 06:47:48;;;;;;;10.57;5.60;;;;;;;10.41;78.48;100496.59;6247262;22;20015;-75
2020/12/14 06:50:32;;;;;;;9.50;5.82;;;;;;;10.41;78.12;100493.94;6272700;22;20505;-76
2020/12/14 06:53:00;;;;;;;9.43;6.07;;;;;;;10.42;78.44;100500.97;6246983;22;20026;-75
2020/12/14 06:55:41;;;;;;;10.77;6.57;;;;;;;10.42;78.36;100490.38;6247560;22;20026;-75
2020/12/14 06:58:29;;;;;;;11.07;6.78;;;;;;;10.43;78.58;100497.38;6247042;22;20020;-75
2020/12/14 07:00:56;;;;;;;14.82;7.45;;;;;;;10.44;78.40;100493.81;6270459;22;20020;-75
2020/12/14 07:03:36;;;;;;;14.70;7.72;;;;;;;10.44;78.64;100488.50;6247280;22;20028;-76
2020/12/14 07:06:04;;;;;;;16.83;8.45;;;;;;;10.45;78.51;100495.50;6272373;22;20046;-76
2020/12/14 07:08:38;;;;;;;15.43;8.82;;;;;;;10.46;78.58;100489.28;6248061;22;20062;-76
2020/12/14 07:11:12;;;;;;;15.77;8.07;;;;;;;10.47;78.98;100488.34;6273935;22;20020;-75
2020/12/14 07:13:39;;;;;;;21.38;9.48;;;;;;;10.50;78.96;100485.53;6274452;22;20107;-76
2020/12/14 07:16:06;;;;;;;19.73;8.85;;;;;;;10.52;78.52;100481.88;6276002;22;20026;-76
2020/12/14 07:18:34;;;;;;;15.85;9.68;;;;;;;10.55;78.86;100480.00;6276425;22;20015;-76
2020/12/14 07:21:09;;;;;;;14.68;8.68;;;;;;;10.56;78.85;100482.56;6248476;22;20024;-76
2020/12/14 07:23:36;;;;;;;18.27;9.07;;;;;;;10.58;78.76;100479.84;6276410;22;20023;-76
2020/12/14 07:26:07;;;;;;;16.85;9.18;;;;;;;10.60;78.91;100484.13;6275628;22;20016;-77
2020/12/14 07:28:47;;;;;;;21.00;10.57;;;;;;;10.62;78.98;100503.44;6249025;22;20012;-77
2020/12/14 07:31:23;;;;;;;14.68;8.68;;;;;;;10.66;79.00;100505.03;6275659;22;20020;-76
2020/12/14 07:33:57;;;;;;;18.85;9.25;;;;;;;10.71;79.24;100502.13;6248806;22;20114;-76
2020/12/14 07:36:25;;;;;;;15.88;7.70;;;;;;;10.78;79.14;100510.63;6275095;22;20023;-76
2020/12/14 07:38:54;;;;;;;14.68;8.65;;;;;;;10.83;79.26;100495.34;6248564;22;20034;-76
2020/12/14 07:41:22;;;;;;;14.63;8.43;;;;;;;10.87;79.06;100491.63;6275237;22;20023;-77
2020/12/14 07:43:56;;;;;;;20.42;11.38;;;;;;;10.90;79.09;100494.09;6271443;22;20030;-76
2020/12/14 07:46:33;;;;;;;15.05;9.57;;;;;;;10.94;79.08;100492.97;6246638;22;20044;-76
2020/12/14 07:49:03;;;;;;;15.23;9.90;;;;;;;10.98;79.13;100505.16;6247305;22;20020;-77
2020/12/14 07:51:30;;;;;;;20.15;11.95;;;;;;;11.00;79.26;100511.22;6274117;22;20091;-77
2020/12/14 07:54:05;;;;;;;21.83;11.27;;;;;;;11.02;79.02;100514.66;6247878;22;20042;-77
2020/12/14 07:56:39;;;;;;;19.33;10.93;;;;;;;11.04;78.92;100510.13;6273543;22;20027;-76
2020/12/14 07:59:18;;;;;;;22.98;12.30;;;;;;;11.06;79.00;100524.16;6222987;22;20030;-77
2020/12/14 08:01:46;;;;;;;22.55;12.10;;;;;;;11.09;78.85;100529.31;6275860;22;20020;-77
2020/12/14 08:04:23;;;;;;;21.90;12.68;;;;;;;11.12;78.97;100530.06;6248771;22;20019;-76
2020/12/14 08:06:50;;;;;;;19.40;11.88;;;;;;;11.14;78.90;100525.56;6247951;22;20520;-76
2020/12/14 08:09:23;;;;;;;22.48;12.95;;;;;;;11.15;78.85;100537.84;6247879;22;20015;-77
2020/12/14 08:11:50;;;;;;;18.15;10.93;;;;;;;11.17;78.93;100542.16;6274715;22;20053;-77
2020/12/14 08:14:17;;;;;;;12.45;8.60;;;;;;;11.20;78.90;100546.44;6248855;22;20505;-77
2020/12/14 08:16:45;;;;;;;25.02;12.60;;;;;;;11.21;78.76;100549.00;6274501;22;20073;-77
2020/12/14 08:19:17;;;;;;;21.77;13.20;;;;;;;11.27;79.03;100547.81;6248254;22;20098;-76
2020/12/14 08:22:00;;;;;;;22.05;13.23;;;;;;;11.31;79.04;100549.38;6247844;22;20389;-77
2020/12/14 08:24:27;;;;;;;22.50;13.88;;;;;;;11.35;78.68;100545.63;6248476;22;20110;-77
2020/12/14 08:27:01;;;;;;;21.52;12.98;;;;;;;11.39;79.12;100547.16;6246293;22;20018;-76
2020/12/14 08:29:31;;;;;;;24.42;13.60;;;;;;;11.44;79.05;100554.88;6277620;22;20322;-76
2020/12/14 08:32:00;;;;;;;22.70;12.73;;;;;;;11.48;78.99;100557.28;6247914;22;20023;-76
2020/12/14 08:34:30;;;;;;;13.75;8.73;;;;;;;11.55;79.17;100556.97;6247798;22;20024;-76
2020/12/14 08:36:56;;;;;;;17.95;10.82;;;;;;;11.59;79.33;100558.50;6248096;22;20018;-76
2020/12/14 08:39:22;;;;;;;18.83;9.90;;;;;;;11.64;79.28;100556.44;6248256;22;20366;-76
2020/12/14 08:42:04;;;;;;;15.20;9.23;;;;;;;11.71;79.33;100563.13;6247067;22;20016;-77
2020/12/14 08:44:31;;;;;;;10.77;7.82;;;;;;;11.78;79.27;100564.53;6247436;22;20016;-76
2020/12/14 08:46:57;;;;;;;13.63;8.55;;;;;;;11.83;79.36;100567.78;6275067;22;20513;-76
2020/12/14 08:49:23;;;;;;;19.15;10.80;;;;;;;11.88;79.26;100568.41;6275431;22;20584;-78
2020/12/14 08:51:49;;;;;;;17.27;10.43;;;;;;;11.95;79.19;100570.75;6275170;22;20023;-76
2020/12/14 08:54:18;;;;;;;13.90;9.90;;;;;;;11.99;78.94;100580.25;6249070;22;20024;-77
2020/12/14 08:56:44;;;;;;;16.55;10.23;;;;;;;12.04;79.08;100575.53;6274944;22;20016;-77
2020/12/14 08:59:21;;;;;;;14.05;9.63;;;;;;;12.09;79.18;100576.13;6275649;22;20016;-77
2020/12/14 09:02:00;;;;;;;15.18;9.82;;;;;;;12.15;78.97;100583.78;6247806;22;20468;-76
2020/12/14 09:04:29;;;;;;;17.27;10.40;;;;;;;12.16;78.80;100585.47;6223638;22;20027;-76
2020/12/14 09:06:56;;;;;;;13.95;9.55;;;;;;;12.19;78.89;100585.31;6248259;22;20065;-76
2020/12/14 09:09:33;;;;;;;18.35;11.40;;;;;;;12.21;78.95;100583.41;6248058;22;20019;-77
2020/12/14 09:12:00;;;;;;;15.68;10.00;;;;;;;12.25;78.91;100584.94;6275362;22;20373;-77
2020/12/14 09:14:32;;;;;;;15.57;9.52;;;;;;;12.29;79.00;100584.78;6248316;22;20026;-77
2020/12/14 09:17:01;;;;;;;17.42;10.68;;;;;;;12.31;78.71;100588.22;6247657;22;20412;-78
2020/12/14 09:19:30;;;;;;;15.80;9.48;;;;;;;12.34;78.87;100588.91;6270303;22;20043;-77
2020/12/14 09:21:57;;;;;;;16.88;10.75;;;;;;;12.37;78.73;100598.47;6222218;22;20024;-77
2020/12/14 09:24:35;;;;;;;15.10;10.27;;;;;;;12.37;78.53;100603.78;6248103;22;20031;-77
2020/12/14 09:27:06;;;;;;;17.58;10.48;;;;;;;12.39;78.88;100599.25;6247740;22;20019;-76
2020/12/14 09:29:32;;;;;;;13.10;9.10;;;;;;;12.42;79.04;100601.75;6275002;22;20022;-77
2020/12/14 09:31:59;;;;;;;11.32;6.80;;;;;;;12.45;78.66;100601.56;6274668;22;20364;-76
2020/12/14 09:34:25;;;;;;;10.65;8.15;;;;;;;12.47;78.62;100610.31;6248323;22;20103;-77
2020/12/14 09:36:53;;;;;;;10.68;8.00;;;;;;;12.51;78.58;100605.66;6268626;22;20026;-76
2020/12/14 09:39:22;;;;;;;14.27;8.57;;;;;;;12.56;78.89;100609.75;6247952;22;20361;-77
2020/12/14 09:41:49;;;;;;;11.95;8.15;;;;;;;12.63;78.59;100616.44;6273949;22;20015;-77
2020/12/14 09:44:15;;;;;;;16.67;11.27;;;;;;;12.75;78.64;100614.91;6275187;22;20016;-77
2020/12/14 09:46:41;;;;;;;13.68;9.50;;;;;;;12.84;78.57;100624.13;6274606;22;20020;-77
2020/12/14 09:49:08;;;;;;;14.10;9.95;;;;;;;12.86;78.47;100622.22;6247279;22;20024;-76
2020/12/14 09:51:35;;;;;;;10.73;7.45;;;;;;;12.90;78.39;100629.06;6274263;22;20023;-76
2020/12/14 09:54:02;;;;;;;10.48;7.70;;;;;;;12.89;78.05;100622.06;6273950;22;20019;-77
2020/12/14 09:56:28;;;;;;;7.75;6.95;;;;;;;12.90;78.26;100629.06;6272490;22;20150;-77
2020/12/14 09:58:54;;;;;;;12.13;8.50;;;;;;;12.89;78.43;100624.72;6246910;22;20106;-77
2020/12/14 10:01:20;;;;;;;16.25;9.73;;;;;;;12.91;78.31;100625.50;6273952;22;20461;-77
2020/12/14 10:03:47;;;;;;;10.48;8.00;;;;;;;12.93;78.33;100626.25;6274440;22;20074;-77
2020/12/14 10:06:13;;;;;;;9.13;7.30;;;;;;;12.94;78.23;100624.44;6273938;22;20020;-77
2020/12/14 10:08:40;;;;;;;9.88;6.95;;;;;;;12.95;78.38;100616.38;6274697;22;20035;-77
2020/12/14 10:11:07;;;;;;;9.65;7.32;;;;;;;12.96;78.28;100628.75;6246865;22;20023;-77
2020/12/14 10:13:35;;;;;;;9.02;6.53;;;;;;;13.00;78.37;100624.94;6274513;22;20015;-77
2020/12/14 10:16:01;;;;;;;7.72;5.70;;;;;;;13.07;78.39;100635.22;6272547;22;20015;-77
2020/12/14 10:18:27;;;;;;;9.60;6.82;;;;;;;13.15;78.31;100632.97;6247259;22;20326;-77
2020/12/14 10:20:54;;;;;;;6.55;5.43;;;;;;;13.20;78.05;100620.25;6246862;22;20026;-77
2020/12/14 10:23:20;;;;;;;9.80;7.18;;;;;;;13.25;78.21;100629.66;6274854;22;20020;-77
2020/12/14 10:25:46;;;;;;;7.95;6.28;;;;;;;13.32;78.12;100635.53;6243515;22;20412;-77
2020/12/14 10:28:12;;;;;;;11.50;8.63;;;;;;;13.38;78.04;100635.13;6247386;22;20016;-77
2020/12/14 10:30:39;;;;;;;10.75;7.85;;;;;;;13.46;77.80;100631.16;6221508;22;20357;-76
2020/12/14 10:33:16;;;;;;;6.68;5.97;;;;;;;13.52;77.73;100633.44;6224408;22;20020;-77
2020/12/14 10:35:43;;;;;;;9.25;6.68;;;;;;;13.57;77.65;100634.03;6247803;22;20012;-77
2020/12/14 10:38:10;;;;;;;8.27;6.90;;;;;;;13.58;77.44;100635.72;6274182;22;20012;-77
2020/12/14 10:40:37;;;;;;;7.13;6.10;;;;;;;13.59;77.73;100637.44;6274812;22;20041;-77
2020/12/14 10:43:03;;;;;;;7.93;5.93;;;;;;;13.59;77.51;100642.78;6247429;22;20016;-76
2020/12/14 10:45:29;;;;;;;7.40;5.88;;;;;;;13.63;77.66;100638.97;6247426;22;20022;-77
2020/12/14 10:47:55;;;;;;;7.90;5.18;;;;;;;13.68;77.69;100626.25;6247209;22;20194;-77
2020/12/14 10:50:24;;;;;;;6.50;4.60;;;;;;;13.74;77.51;100620.53;6233308;22;20637;-82
2020/12/14 10:52:50;;;;;;;6.90;4.70;;;;;;;13.75;77.54;100624.94;6215344;23;20032;-82
2020/12/14 10:55:18;;;;;;;5.63;4.38;;;;;;;13.80;77.56;100614.81;6215627;23;20044;-81
2020/12/14 10:57:45;;;;;;;7.78;3.28;;;;;;;13.86;77.27;100628.72;6216225;23;20017;-82
2020/12/14 11:00:12;;;;;;;5.40;3.80;;;;;;;13.90;77.41;100631.09;6216420;23;20047;-81
2020/12/14 11:02:39;;;;;;;4.50;3.28;;;;;;;13.96;77.10;100632.53;6216736;23;20085;-82
2020/12/14 11:05:07;;;;;;;8.95;5.40;;;;;;;14.00;77.22;100626.06;6217370;23;20031;-81
2020/12/14 11:07:34;;;;;;;7.25;4.60;;;;;;;14.07;77.24;100626.50;6190707;23;20016;-81
2020/12/14 11:10:02;;;;;;;5.20;3.80;;;;;;;14.13;77.17;100631.47;6216163;23;20021;-81
2020/12/14 11:12:28;;;;;;;8.45;4.93;;;;;;;14.15;77.13;100635.72;6217615;23;20017;-82
2020/12/14 11:14:54;;;;;;;6.28;4.55;;;;;;;14.19;77.01;100628.41;6216208;23;20667;-82
2020/12/14 11:17:21;;;;;;;6.93;3.92;;;;;;;14.23;77.02;100626.41;6218106;23;20020;-80
2020/12/14 11:19:47;;;;;;;5.85;4.18;;;;;;;14.27;76.85;100627.91;6219914;23;20031;-81
2020/12/14 11:22:14;;;;;;;6.15;3.42;;;;;;;14.29;76.71;100631.34;6206342;23;20031;-82
2020/12/14 11:24:40;;;;;;;5.55;3.50;;;;;;;14.30;76.63;100638.38;6239548;23;20024;-81
2020/12/14 11:27:14;;;;;;;6.30;4.07;;;;;;;14.31;76.95;100632.09;6238684;23;20027;-82